Time;durP1;ratioP1;P1;durP2;ratioP2;P2;SDS_P1;SDS_P2;PMS_P1;PMS_P2;Temp;Humidity;BMP_temperature;BMP_pressure;BME280_temperature;BME280_humidity;BME280_pressure;Samples;Min_cycle;Max_cycle;Signal;HPM_P1;HPM_P2
2023/02/08 00:01:24;;;;;;;41.80;21.53;;;-6.70;99.90;-7.40;103042.00;;;;4920220;28;84497;-61
2023/02/08 00:03:51;;;;;;;37.53;21.80;;;-6.60;99.90;-7.40;103041.00;;;;4916698;28;84534;-62
2023/02/08 00:06:17;;;;;;;44.10;22.37;;;-6.70;99.90;-7.40;103039.00;;;;4915022;28;84788;-62
2023/02/08 00:08:43;;;;;;;40.23;21.90;;;-6.80;99.90;-7.40;103039.00;;;;4915001;28;83430;-61
2023/02/08 00:11:10;;;;;;;40.07;22.23;;;-6.70;99.90;-7.50;103044.00;;;;4916251;28;94945;-62
2023/02/08 00:13:36;;;;;;;40.93;21.43;;;-6.80;99.90;-7.60;103039.00;;;;4917278;28;84359;-63
2023/02/08 00:16:03;;;;;;;38.43;21.07;;;-6.90;99.90;-7.60;103035.00;;;;4918004;28;90696;-61
2023/02/08 00:18:28;;;;;;;35.33;19.33;;;-6.20;99.90;-7.60;103041.00;;;;4918141;28;83609;-61
2023/02/08 00:20:56;;;;;;;38.83;20.23;;;-6.10;99.90;-7.70;103041.00;;;;4915623;28;113348;-60
2023/02/08 00:23:22;;;;;;;57.67;27.67;;;-8.10;99.90;-7.70;103033.00;;;;4915077;28;84057;-63
2023/02/08 00:25:48;;;;;;;56.60;30.43;;;-6.90;99.90;-7.80;103051.00;;;;4918037;28;87948;-63
2023/02/08 00:28:18;;;;;;;49.17;24.63;;;-7.10;99.90;-7.90;103030.00;;;;4916777;28;108515;-62
2023/02/08 00:30:43;;;;;;;43.63;23.40;;;-7.10;99.90;-7.90;103040.00;;;;4915643;28;83730;-61
2023/02/08 00:33:10;;;;;;;35.17;18.53;;;-7.20;99.90;-7.90;103045.00;;;;4916156;28;115010;-63
2023/02/08 00:35:36;;;;;;;35.23;19.90;;;-7.20;99.90;-7.90;103042.00;;;;4913152;28;93728;-63
2023/02/08 00:38:02;;;;;;;37.70;18.90;;;-7.20;99.90;-8.00;103032.00;;;;4917577;28;84790;-64
2023/02/08 00:40:28;;;;;;;36.63;20.83;;;-7.30;99.90;-8.00;103030.00;;;;4917125;28;98690;-63
2023/02/08 00:42:53;;;;;;;31.43;18.70;;;-7.40;99.90;-8.00;103037.00;;;;4915240;28;112768;-63
2023/02/08 00:45:19;;;;;;;38.53;21.00;;;-7.30;99.90;-8.10;103031.00;;;;4912634;28;113721;-63
2023/02/08 00:47:45;;;;;;;41.67;21.37;;;-7.10;99.90;-8.10;103033.00;;;;4913570;28;107795;-61
2023/02/08 00:50:11;;;;;;;37.30;19.63;;;-7.40;99.90;-8.20;103026.00;;;;4911789;28;113691;-62
2023/02/08 00:52:37;;;;;;;40.10;19.80;;;-7.50;99.90;-8.20;103022.00;;;;4916805;28;114838;-63
2023/02/08 00:55:05;;;;;;;39.30;18.33;;;-7.50;99.90;-8.30;103023.00;;;;4912876;28;83789;-64
2023/02/08 00:57:34;;;;;;;39.00;19.30;;;-6.60;99.90;-8.30;103029.00;;;;4918498;28;100174;-63
2023/02/08 01:00:00;;;;;;;36.80;18.80;;;-7.60;99.90;-8.40;103026.00;;;;4916990;28;83553;-62
2023/02/08 01:02:27;;;;;;;37.20;17.53;;;-7.70;99.90;-8.30;103026.00;;;;4918176;28;84705;-62
2023/02/08 01:04:53;;;;;;;33.40;19.00;;;-7.70;99.90;-8.30;103025.00;;;;4914171;28;84682;-62
2023/02/08 01:07:19;;;;;;;32.50;18.57;;;-7.60;99.90;-8.30;103027.00;;;;4914315;28;106952;-64
2023/02/08 01:09:44;;;;;;;31.30;18.87;;;-6.90;99.90;-8.20;103037.00;;;;4911925;28;101414;-64
2023/02/08 01:12:10;;;;;;;34.50;17.47;;;-7.50;99.90;-8.20;103019.00;;;;4910849;28;112670;-62
2023/02/08 01:14:37;;;;;;;33.70;18.00;;;-7.50;99.90;-8.10;103022.00;;;;4916980;28;112416;-62
2023/02/08 01:17:03;;;;;;;28.63;16.13;;;-7.50;99.90;-8.10;103022.00;;;;4914622;28;83384;-63
2023/02/08 01:19:29;;;;;;;29.17;17.80;;;-7.40;99.90;-8.10;103024.00;;;;4917906;28;113142;-62
2023/02/08 01:21:55;;;;;;;30.40;18.40;;;-7.50;99.90;-8.10;103020.00;;;;4914262;28;95416;-62
2023/02/08 01:24:21;;;;;;;28.07;16.40;;;-7.30;99.90;-8.10;103024.00;;;;4917677;28;84674;-62
2023/02/08 01:26:46;;;;;;;30.87;17.73;;;-7.30;99.90;-8.10;103025.00;;;;4916453;28;109863;-62
2023/02/08 01:29:12;;;;;;;37.50;19.23;;;-7.40;99.90;-8.10;103016.00;;;;4918722;28;113158;-62
2023/02/08 01:31:40;;;;;;;38.27;18.83;;;-7.30;99.90;-8.10;103018.00;;;;4920199;28;113492;-63
2023/02/08 01:34:07;;;;;;;32.07;18.67;;;-7.40;99.90;-8.10;103021.00;;;;4919128;28;83659;-64
2023/02/08 01:36:34;;;;;;;31.57;19.10;;;-7.40;99.90;-8.20;103020.00;;;;4918557;28;83271;-63
2023/02/08 01:39:01;;;;;;;34.17;17.23;;;-7.40;99.90;-8.20;103023.00;;;;4915118;28;100278;-63
2023/02/08 01:41:36;;;;;;;28.87;17.30;;;-7.50;99.90;-8.20;103024.00;;;;4915044;28;84888;-63
2023/02/08 01:44:10;;;;;;;38.30;18.70;;;-7.50;99.90;-8.30;103015.00;;;;4916265;28;84559;-63
2023/02/08 01:46:45;;;;;;;34.33;18.07;;;-7.50;99.90;-8.30;103013.00;;;;4913829;28;86240;-63
2023/02/08 01:49:19;;;;;;;25.37;16.50;;;-7.60;99.90;-8.40;103013.00;;;;4916391;28;83559;-63
2023/02/08 01:51:53;;;;;;;30.13;17.27;;;-7.60;99.90;-8.50;103016.00;;;;4915931;28;98739;-63
2023/02/08 01:54:23;;;;;;;34.97;16.70;;;-7.80;99.90;-8.50;103016.00;;;;4915627;28;106538;-63
2023/02/08 01:56:49;;;;;;;28.63;14.70;;;-7.80;99.90;-8.60;103022.00;;;;4917019;28;100847;-63
2023/02/08 01:59:34;;;;;;;33.77;17.63;;;-7.90;99.90;-8.60;103024.00;;;;4916392;28;97477;-65
2023/02/08 02:02:01;;;;;;;27.83;16.23;;;-7.90;99.90;-8.60;103020.00;;;;4912251;28;103591;-64
2023/02/08 02:04:27;;;;;;;31.67;16.73;;;-7.90;99.90;-8.60;103021.00;;;;4916705;28;84359;-64
2023/02/08 02:06:57;;;;;;;32.10;18.40;;;-7.80;99.90;-8.50;103001.00;;;;4917789;28;83247;-64
2023/02/08 02:09:52;;;;;;;29.10;17.67;;;-7.90;99.90;-8.60;103009.00;;;;4917775;28;84082;-64
2023/02/08 02:12:20;;;;;;;35.60;18.43;;;-7.90;99.90;-8.60;103020.00;;;;4913038;28;106700;-65
2023/02/08 02:14:46;;;;;;;30.97;16.97;;;-7.90;99.90;-8.60;103008.00;;;;4920086;28;83688;-64
2023/02/08 02:17:14;;;;;;;29.30;17.60;;;-7.90;99.90;-8.60;103002.00;;;;4919400;28;109294;-64
2023/02/08 02:20:18;;;;;;;35.27;19.03;;;-7.90;99.90;-8.70;102995.00;;;;4911842;28;83715;-64
2023/02/08 02:23:10;;;;;;;30.93;16.80;;;-7.90;99.90;-8.80;102993.00;;;;4910555;28;83791;-64
2023/02/08 02:26:00;;;;;;;30.83;17.00;;;-7.90;99.90;-8.80;102997.00;;;;4885752;28;85518;-64
2023/02/08 02:29:08;;;;;;;32.57;17.33;;;-8.00;99.90;-8.90;102998.00;;;;4928089;28;100761;-64
2023/02/08 02:31:58;;;;;;;37.63;18.50;;;-8.00;99.90;-8.90;102987.00;;;;4916410;28;84459;-64
2023/02/08 02:34:49;;;;;;;32.77;18.20;;;-8.10;99.90;-9.00;102976.00;;;;4914556;28;83698;-64
2023/02/08 02:37:40;;;;;;;28.97;17.90;;;-8.10;99.90;-9.00;102989.00;;;;4916220;28;106869;-64
2023/02/08 02:40:48;;;;;;;30.00;17.13;;;-8.10;99.90;-9.00;102987.00;;;;4926848;28;83445;-64
2023/02/08 02:43:45;;;;;;;31.80;18.33;;;-8.20;99.90;-9.10;102991.00;;;;4909055;28;103708;-64
2023/02/08 02:46:27;;;;;;;26.73;16.63;;;-8.20;99.90;-9.00;102993.00;;;;4910997;28;83896;-64
2023/02/08 02:49:25;;;;;;;36.07;17.93;;;-8.20;99.90;-9.00;102985.00;;;;4932508;28;83742;-64
2023/02/08 02:52:26;;;;;;;31.83;17.50;;;-8.20;99.90;-8.90;102987.00;;;;4929287;28;83796;-64
2023/02/08 02:54:57;;;;;;;31.80;15.83;;;-8.20;99.90;-8.90;102992.00;;;;4906766;28;83621;-64
2023/02/08 02:57:33;;;;;;;34.23;17.07;;;-8.10;99.90;-9.00;102995.00;;;;4913153;28;107200;-64
2023/02/08 03:00:05;;;;;;;26.80;15.20;;;-8.10;99.90;-9.00;102991.00;;;;4914033;28;84124;-64
2023/02/08 03:02:31;;;;;;;33.63;16.87;;;-8.30;99.90;-9.00;102978.00;;;;4931196;28;83579;-64
2023/02/08 03:04:57;;;;;;;36.13;17.63;;;-7.30;99.90;-9.00;102984.00;;;;4915531;28;83510;-64
2023/02/08 03:07:50;;;;;;;29.03;16.60;;;-8.30;99.90;-9.10;102995.00;;;;4914549;28;96147;-63
2023/02/08 03:10:44;;;;;;;27.30;16.10;;;-8.20;99.90;-9.10;102983.00;;;;4931895;28;83522;-64
2023/02/08 03:14:03;;;;;;;33.40;17.47;;;-8.30;99.90;-9.20;102991.00;;;;4930306;28;83912;-64
2023/02/08 03:17:02;;;;;;;34.00;17.93;;;-8.30;99.90;-9.30;102988.00;;;;4916187;28;83788;-64
2023/02/08 03:19:51;;;;;;;30.57;16.60;;;-8.40;99.90;-9.30;103002.00;;;;4915317;28;83546;-64
2023/02/08 03:22:29;;;;;;;31.67;16.73;;;-8.50;99.90;-9.20;103006.00;;;;4915255;28;84689;-65
2023/02/08 03:25:02;;;;;;;29.17;17.13;;;-8.40;99.90;-9.20;103017.00;;;;4913890;28;93953;-64
2023/02/08 03:27:48;;;;;;;27.57;16.97;;;-8.40;99.90;-9.20;102997.00;;;;4913767;28;91812;-64
2023/02/08 03:30:31;;;;;;;32.23;16.27;;;-8.50;99.90;-9.30;103003.00;;;;4935204;28;83790;-64
2023/02/08 03:33:16;;;;;;;26.37;15.83;;;-8.40;99.90;-9.30;103018.00;;;;4928982;28;83483;-64
2023/02/08 03:35:56;;;;;;;31.37;15.47;;;-8.50;99.90;-9.20;103029.00;;;;4916484;28;92963;-64
2023/02/08 03:38:35;;;;;;;32.77;15.97;;;-8.50;99.90;-9.20;103020.00;;;;4916482;28;84184;-65
2023/02/08 03:41:05;;;;;;;28.17;16.80;;;-8.40;99.90;-9.20;103024.00;;;;4928054;28;101627;-64
2023/02/08 03:43:37;;;;;;;34.80;16.60;;;-9.10;99.90;-9.20;103024.00;;;;4930267;28;88370;-64
2023/02/08 03:46:23;;;;;;;32.93;17.10;;;-8.40;99.90;-9.20;103035.00;;;;4929629;28;92211;-64
2023/02/08 03:48:58;;;;;;;27.33;16.67;;;-8.50;99.90;-9.20;103031.00;;;;4924206;28;103864;-65
2023/02/08 03:51:27;;;;;;;30.17;17.33;;;-8.30;99.90;-9.20;103034.00;;;;4929127;28;101690;-65
2023/02/08 03:53:56;;;;;;;30.47;17.23;;;-8.40;99.90;-9.20;103036.00;;;;4912891;28;83767;-64
2023/02/08 03:56:50;;;;;;;34.30;17.80;;;-8.40;99.90;-9.30;103035.00;;;;4914452;28;102095;-64
2023/02/08 03:59:23;;;;;;;30.30;16.33;;;-8.50;99.90;-9.20;103026.00;;;;4930812;28;107193;-64
2023/02/08 04:01:59;;;;;;;25.73;16.47;;;-8.40;99.90;-9.30;103040.00;;;;4913843;28;109698;-66
2023/02/08 04:04:29;;;;;;;29.67;15.83;;;-8.50;99.90;-9.30;103043.00;;;;4789608;28;97610;-64
2023/02/08 04:06:55;;;;;;;29.63;17.07;;;-8.40;99.90;-9.30;103033.00;;;;4669303;28;85171;-65
2023/02/08 04:09:20;;;;;;;30.57;17.70;;;-8.50;99.90;-9.30;103030.00;;;;4915905;28;92183;-65
2023/02/08 04:11:46;;;;;;;34.47;17.43;;;-8.50;99.90;-9.30;103038.00;;;;4914681;28;111234;-65
2023/02/08 04:14:11;;;;;;;37.90;16.90;;;-8.50;99.90;-9.30;103029.00;;;;4913592;28;114197;-65
2023/02/08 04:16:37;;;;;;;36.97;18.17;;;-8.50;99.90;-9.30;103029.00;;;;4915873;28;108142;-64
2023/02/08 04:19:03;;;;;;;30.63;16.13;;;-8.60;99.90;-9.30;103033.00;;;;4910856;28;113100;-65
2023/02/08 04:21:28;;;;;;;32.60;17.93;;;-9.60;99.90;-9.30;103030.00;;;;4913707;28;111691;-64
2023/02/08 04:23:54;;;;;;;28.67;15.87;;;-8.60;99.90;-9.30;103028.00;;;;4912713;28;113014;-64
2023/02/08 04:26:20;;;;;;;32.00;16.83;;;-8.50;99.90;-9.30;103027.00;;;;4917076;28;108646;-65
2023/02/08 04:28:45;;;;;;;34.77;17.57;;;-7.80;99.90;-9.20;103025.00;;;;4915173;28;111716;-64
2023/02/08 04:31:11;;;;;;;29.43;16.90;;;-8.50;99.90;-9.20;103027.00;;;;4911469;28;92419;-65
2023/02/08 04:33:37;;;;;;;34.23;16.63;;;-8.50;99.90;-9.20;103022.00;;;;4912970;28;112275;-64
2023/02/08 04:36:03;;;;;;;28.77;16.53;;;-8.50;99.90;-9.10;103014.00;;;;4917506;28;93161;-65
2023/02/08 04:38:28;;;;;;;32.33;18.20;;;-8.40;99.90;-9.10;103021.00;;;;4916868;28;103973;-65
2023/02/08 04:40:54;;;;;;;33.37;18.40;;;-7.40;99.90;-9.00;103010.00;;;;4916839;28;113494;-65
2023/02/08 04:43:20;;;;;;;38.63;18.10;;;-8.30;99.90;-8.90;103008.00;;;;4917774;28;113752;-65
2023/02/08 04:45:45;;;;;;;41.17;18.53;;;-8.20;99.90;-8.90;103007.00;;;;4914297;28;109097;-65
2023/02/08 04:48:11;;;;;;;34.10;18.93;;;-8.10;99.90;-8.90;103008.00;;;;4916509;28;112658;-64
2023/02/08 04:50:37;;;;;;;31.07;19.43;;;-8.20;99.90;-8.90;103002.00;;;;4915833;28;113094;-65
2023/02/08 04:53:02;;;;;;;34.43;18.87;;;-8.30;99.90;-8.90;103010.00;;;;4917640;28;84299;-65
2023/02/08 04:55:28;;;;;;;32.27;19.00;;;-8.20;99.90;-8.90;103014.00;;;;4917429;28;108854;-65
2023/02/08 04:57:53;;;;;;;31.10;18.60;;;-8.10;99.90;-8.90;103014.00;;;;4916831;28;113268;-65
2023/02/08 05:00:19;;;;;;;31.13;19.00;;;-8.10;99.90;-8.90;103012.00;;;;4933433;28;112928;-65
2023/02/08 05:02:45;;;;;;;40.37;18.93;;;-8.10;99.90;-8.90;103009.00;;;;4915702;28;109683;-64
2023/02/08 05:05:11;;;;;;;26.70;17.00;;;-8.10;99.90;-8.90;103008.00;;;;4915886;28;107454;-65
2023/02/08 05:07:36;;;;;;;40.10;19.53;;;-8.20;99.90;-8.90;103014.00;;;;4918773;28;113604;-65
2023/02/08 05:10:03;;;;;;;30.80;17.97;;;-8.10;99.90;-8.90;103008.00;;;;4917367;28;114394;-65
2023/02/08 05:12:29;;;;;;;37.20;20.00;;;-7.90;99.90;-8.80;103011.00;;;;4917916;28;104825;-64
2023/02/08 05:14:55;;;;;;;37.43;20.17;;;-8.10;99.90;-8.80;102999.00;;;;4913411;28;108371;-65
2023/02/08 05:17:21;;;;;;;34.90;18.33;;;-8.10;99.90;-8.80;103009.00;;;;4917382;28;109076;-65
2023/02/08 05:19:47;;;;;;;41.67;18.87;;;-8.20;99.90;-8.80;103007.00;;;;4896975;28;83895;-64
2023/02/08 05:22:12;;;;;;;35.80;18.20;;;-8.10;99.90;-8.80;103007.00;;;;4917050;28;112200;-63
2023/02/08 05:24:38;;;;;;;33.73;20.03;;;-8.10;99.90;-8.80;103006.00;;;;4920758;28;83256;-64
2023/02/08 05:27:04;;;;;;;35.60;18.33;;;-7.70;99.90;-8.80;103008.00;;;;4922417;28;113273;-64
2023/02/08 05:29:29;;;;;;;36.73;20.10;;;-7.20;99.90;-8.80;103009.00;;;;4917142;28;112771;-64
2023/02/08 05:31:55;;;;;;;35.23;19.13;;;-8.00;99.90;-8.80;103003.00;;;;4912307;28;105765;-64
2023/02/08 05:34:21;;;;;;;36.77;20.40;;;-7.00;99.90;-8.80;103000.00;;;;4919263;28;107845;-65
2023/02/08 05:36:46;;;;;;;35.20;18.57;;;-8.10;99.90;-8.80;103011.00;;;;4916156;28;112264;-65
2023/02/08 05:39:12;;;;;;;44.30;19.80;;;-7.20;99.90;-8.90;102998.00;;;;4913495;28;112902;-64
2023/02/08 05:41:37;;;;;;;31.57;17.90;;;-7.30;99.90;-8.90;102997.00;;;;4917364;28;115233;-64
2023/02/08 05:44:03;;;;;;;38.97;19.97;;;-8.10;99.90;-8.90;102996.00;;;;4920509;28;108530;-64
2023/02/08 05:46:29;;;;;;;35.57;18.73;;;-8.00;99.90;-8.90;103004.00;;;;4916232;28;112998;-64
2023/02/08 05:48:55;;;;;;;37.03;18.87;;;-8.10;99.90;-8.90;103022.00;;;;4913579;28;84245;-64
2023/02/08 05:51:20;;;;;;;34.93;18.27;;;-7.30;99.90;-8.90;103008.00;;;;4913166;28;84247;-64
2023/02/08 05:53:46;;;;;;;33.27;18.57;;;-7.00;99.90;-8.80;103015.00;;;;4920146;28;86801;-64
2023/02/08 05:56:12;;;;;;;44.03;20.13;;;-8.10;99.90;-8.80;103016.00;;;;4913844;28;113755;-64
2023/02/08 05:58:37;;;;;;;29.17;17.57;;;-8.10;99.90;-8.80;103027.00;;;;4918900;28;113545;-64
2023/02/08 06:01:11;;;;;;;43.67;20.03;;;-8.10;99.90;-8.80;103029.00;;;;4920189;28;107737;-63
2023/02/08 06:03:38;;;;;;;39.87;20.30;;;-8.10;99.90;-8.80;103021.00;;;;4914102;28;83555;-64
2023/02/08 06:06:05;;;;;;;36.07;18.53;;;-7.50;99.90;-8.80;103019.00;;;;4914523;28;104322;-64
2023/02/08 06:08:31;;;;;;;37.80;18.73;;;-7.90;99.90;-8.90;103013.00;;;;4912634;28;84323;-65
2023/02/08 06:10:56;;;;;;;41.43;22.07;;;-8.00;99.90;-8.90;103015.00;;;;4910101;28;110649;-64
2023/02/08 06:13:22;;;;;;;41.93;21.03;;;-7.10;99.90;-8.90;103035.00;;;;4914458;28;108264;-64
2023/02/08 06:15:48;;;;;;;36.70;19.57;;;-8.10;99.90;-9.00;103016.00;;;;4910600;28;107114;-64
2023/02/08 06:18:14;;;;;;;33.70;18.47;;;-8.10;99.90;-9.00;103023.00;;;;4913391;28;113521;-65
2023/02/08 06:20:39;;;;;;;40.23;20.57;;;-8.20;99.90;-9.00;103035.00;;;;4919670;28;90937;-64
2023/02/08 06:23:05;;;;;;;38.53;19.70;;;-8.30;99.90;-9.10;103028.00;;;;4915506;28;108372;-64
2023/02/08 06:25:31;;;;;;;44.20;24.00;;;-8.30;99.90;-9.10;103036.00;;;;4916656;28;99941;-64
2023/02/08 06:27:57;;;;;;;56.17;27.47;;;-8.30;99.90;-9.10;103036.00;;;;4916517;28;111905;-64
2023/02/08 06:30:22;;;;;;;42.83;20.93;;;-8.30;99.90;-9.20;103037.00;;;;4918128;28;113026;-63
2023/02/08 06:32:48;;;;;;;36.80;20.57;;;-8.30;99.90;-9.20;103051.00;;;;4913409;28;109391;-64
2023/02/08 06:35:14;;;;;;;32.43;19.13;;;-8.40;99.90;-9.20;103044.00;;;;4911014;28;112561;-64
2023/02/08 06:37:39;;;;;;;37.07;19.20;;;-8.40;99.90;-9.20;103044.00;;;;4914380;28;97870;-64
2023/02/08 06:40:06;;;;;;;34.83;19.60;;;-8.40;99.90;-9.20;103058.00;;;;4918380;28;113038;-64
2023/02/08 06:42:32;;;;;;;37.67;20.80;;;-8.50;99.90;-9.20;103054.00;;;;4915599;28;83479;-64
2023/02/08 06:44:58;;;;;;;34.33;19.87;;;-8.50;99.90;-9.20;103062.00;;;;4912128;28;114704;-65
2023/02/08 06:47:25;;;;;;;35.33;21.03;;;-8.40;99.90;-9.20;103063.00;;;;4913369;28;83523;-64
2023/02/08 06:49:52;;;;;;;39.83;21.20;;;-8.40;99.90;-9.20;103051.00;;;;4912470;28;83747;-64
2023/02/08 06:52:18;;;;;;;43.63;23.17;;;-8.40;99.90;-9.20;103055.00;;;;4910777;28;98263;-64
2023/02/08 06:54:44;;;;;;;46.83;22.83;;;-8.40;99.90;-9.20;103057.00;;;;4915126;28;83662;-64
2023/02/08 06:57:13;;;;;;;41.80;22.40;;;-8.30;99.90;-9.10;103051.00;;;;4916196;28;114009;-64
2023/02/08 06:59:40;;;;;;;35.47;21.53;;;-8.30;99.90;-9.10;103056.00;;;;4914420;28;84209;-64
2023/02/08 07:02:15;;;;;;;45.07;22.43;;;-8.40;99.90;-9.00;103064.00;;;;4912108;28;83435;-64
2023/02/08 07:04:41;;;;;;;43.07;20.90;;;-8.20;99.90;-8.90;103045.00;;;;4915361;28;84219;-64
2023/02/08 07:07:06;;;;;;;38.80;21.67;;;-8.20;99.90;-8.80;103047.00;;;;4910149;28;104016;-65
2023/02/08 07:09:34;;;;;;;44.27;20.30;;;-8.20;99.90;-8.70;103045.00;;;;4916106;28;83733;-64
2023/02/08 07:12:03;;;;;;;41.87;20.80;;;-8.00;99.90;-8.50;103047.00;;;;4913440;28;83496;-64
2023/02/08 07:14:31;;;;;;;34.43;20.10;;;-7.80;99.90;-8.20;103057.00;;;;4918647;28;84009;-64
2023/02/08 07:16:56;;;;;;;40.20;21.43;;;-7.60;99.90;-8.00;103062.00;;;;4919778;28;84004;-64
2023/02/08 07:19:22;;;;;;;41.27;23.93;;;-7.50;99.90;-7.70;103057.00;;;;4913256;28;113008;-64
2023/02/08 07:21:47;;;;;;;41.83;22.17;;;-7.10;99.90;-7.40;103047.00;;;;4917964;28;109081;-65
2023/02/08 07:24:13;;;;;;;45.10;24.90;;;-6.90;99.90;-7.20;103060.00;;;;4919144;28;113352;-64
2023/02/08 07:26:39;;;;;;;55.10;27.43;;;-6.70;99.90;-6.90;103053.00;;;;4916410;28;115079;-64
2023/02/08 07:29:04;;;;;;;182.20;118.60;;;-5.30;99.90;-6.60;103053.00;;;;4916849;28;84473;-64
2023/02/08 07:31:30;;;;;;;90.63;52.13;;;-6.10;99.90;-6.30;103059.00;;;;4918123;28;109877;-64
2023/02/08 07:33:58;;;;;;;53.23;26.73;;;-5.80;99.90;-6.10;103066.00;;;;4923805;28;113266;-64
2023/02/08 07:36:23;;;;;;;53.07;27.67;;;-5.50;99.90;-5.80;103058.00;;;;4920565;28;108786;-64
2023/02/08 07:38:49;;;;;;;39.57;22.93;;;-5.30;99.90;-5.60;103070.00;;;;4918753;28;110853;-63
2023/02/08 07:41:15;;;;;;;43.33;24.17;;;-5.00;99.90;-5.30;103075.00;;;;4920870;28;109862;-63
2023/02/08 07:43:42;;;;;;;34.60;21.47;;;-4.90;99.90;-5.10;103072.00;;;;4920776;28;83564;-63
2023/02/08 07:46:10;;;;;;;36.30;21.53;;;-4.60;99.90;-4.90;103077.00;;;;4918345;28;84426;-64
2023/02/08 07:48:36;;;;;;;40.27;21.57;;;-4.40;99.90;-4.70;103082.00;;;;4917348;28;103159;-63
2023/02/08 07:51:02;;;;;;;42.47;22.60;;;-4.20;99.90;-4.50;103072.00;;;;4917047;28;109676;-63
2023/02/08 07:53:29;;;;;;;39.43;22.13;;;-3.50;99.90;-4.30;103084.00;;;;4918785;28;84066;-62
2023/02/08 07:55:55;;;;;;;37.77;22.67;;;-3.80;99.90;-4.10;103075.00;;;;4916170;28;83905;-62
2023/02/08 07:58:20;;;;;;;39.03;22.47;;;-3.60;99.90;-4.00;103072.00;;;;4919905;28;83618;-63
2023/02/08 08:00:46;;;;;;;42.13;21.00;;;-3.40;99.90;-3.80;103070.00;;;;4921127;28;108751;-61
2023/02/08 08:03:12;;;;;;;36.77;19.20;;;-3.30;99.90;-3.70;103084.00;;;;4918442;28;112327;-63
2023/02/08 08:05:40;;;;;;;29.00;17.53;;;-3.30;99.90;-3.60;103076.00;;;;4916439;28;114149;-61
2023/02/08 08:08:07;;;;;;;29.87;17.80;;;-3.10;99.90;-3.50;103076.00;;;;4919310;28;84185;-62
2023/02/08 08:10:33;;;;;;;25.77;16.63;;;-3.00;99.90;-3.40;103079.00;;;;4920105;28;83514;-61
2023/02/08 08:12:59;;;;;;;32.60;18.20;;;-2.90;99.90;-3.20;103079.00;;;;4916280;28;103575;-61
2023/02/08 08:15:24;;;;;;;34.90;15.60;;;-2.80;99.90;-3.10;103079.00;;;;4917020;28;84236;-62
2023/02/08 08:17:50;;;;;;;31.20;17.23;;;-2.70;99.90;-2.90;103071.00;;;;4920185;28;113091;-60
2023/02/08 08:20:16;;;;;;;25.43;15.17;;;-2.60;99.90;-2.70;103084.00;;;;4915916;28;108581;-63
2023/02/08 08:22:42;;;;;;;27.80;16.47;;;-2.20;99.90;-2.60;103084.00;;;;4917692;28;83952;-63
2023/02/08 08:25:07;;;;;;;32.60;17.10;;;-2.10;99.90;-2.40;103076.00;;;;4917920;28;112658;-63
2023/02/08 08:27:34;;;;;;;28.00;15.47;;;-2.00;99.90;-2.30;103082.00;;;;4916612;28;112491;-63
2023/02/08 08:30:00;;;;;;;29.17;15.63;;;-1.90;99.90;-2.10;103085.00;;;;4921341;28;83555;-63
2023/02/08 08:32:26;;;;;;;28.23;13.67;;;-1.70;99.90;-1.90;103088.00;;;;4919484;28;83956;-64
2023/02/08 08:34:52;;;;;;;23.40;14.47;;;-1.50;99.90;-1.70;103085.00;;;;4916520;28;114924;-65
2023/02/08 08:37:17;;;;;;;22.83;13.87;;;-1.40;99.90;-1.50;103093.00;;;;4919892;28;84436;-63
2023/02/08 08:39:43;;;;;;;18.80;12.83;;;-1.20;99.90;-1.30;103088.00;;;;4918219;28;98995;-64
2023/02/08 08:42:09;;;;;;;21.87;13.13;;;-1.00;99.90;-1.10;103083.00;;;;4917943;28;111727;-64
2023/02/08 08:44:35;;;;;;;23.97;12.77;;;-0.80;99.90;-0.90;103093.00;;;;4924233;28;112961;-64
2023/02/08 08:47:01;;;;;;;23.47;12.80;;;-0.60;99.90;-0.70;103095.00;;;;4918936;28;113052;-63
2023/02/08 08:49:28;;;;;;;22.43;12.97;;;-0.40;99.90;-0.50;103087.00;;;;4913216;28;107787;-64
2023/02/08 08:51:54;;;;;;;19.37;11.33;;;-0.10;99.90;-0.40;103094.00;;;;4917868;28;83268;-64
2023/02/08 08:54:20;;;;;;;28.10;12.93;;;-0.10;99.90;-0.20;103097.00;;;;4915598;28;113500;-64
2023/02/08 08:56:46;;;;;;;27.90;14.30;;;0.20;99.90;0.10;103097.00;;;;4916000;28;84358;-64
2023/02/08 08:59:12;;;;;;;21.10;12.33;;;0.30;99.90;0.30;103088.00;;;;4931105;28;108047;-64
2023/02/08 09:01:40;;;;;;;24.17;11.90;;;0.50;99.90;0.50;103094.00;;;;4919363;28;98535;-65
2023/02/08 09:04:05;;;;;;;21.80;12.33;;;0.70;99.90;0.70;103100.00;;;;4925725;28;83830;-65
2023/02/08 09:06:31;;;;;;;15.03;10.50;;;1.00;99.90;0.90;103083.00;;;;4920467;28;112615;-64
2023/02/08 09:08:56;;;;;;;20.10;10.20;;;1.10;99.90;1.10;103095.00;;;;4917745;28;90287;-62
2023/02/08 09:11:22;;;;;;;19.90;11.07;;;1.30;99.90;1.20;103097.00;;;;4916516;28;113894;-63
2023/02/08 09:13:51;;;;;;;18.07;11.13;;;1.40;99.90;1.20;103110.00;;;;4917639;28;113491;-62
2023/02/08 09:16:18;;;;;;;16.23;11.47;;;2.50;99.90;1.20;103111.00;;;;4914064;28;83520;-63
2023/02/08 09:18:44;;;;;;;17.67;10.60;;;1.50;99.90;1.40;103112.00;;;;4913920;28;108525;-62
2023/02/08 09:21:19;;;;;;;17.07;10.53;;;1.60;99.90;1.60;103107.00;;;;4915049;28;113332;-62
2023/02/08 09:23:46;;;;;;;17.97;9.73;;;1.80;99.90;1.80;103109.00;;;;4932179;28;83649;-63
2023/02/08 09:26:15;;;;;;;21.43;11.63;;;2.00;99.90;1.90;103110.00;;;;4919008;28;84232;-63
2023/02/08 09:28:41;;;;;;;21.70;10.33;;;2.00;99.90;2.00;103120.00;;;;4920522;28;92592;-63
2023/02/08 09:31:11;;;;;;;22.17;12.27;;;2.30;99.90;2.00;103117.00;;;;4918979;28;92944;-63
2023/02/08 09:33:38;;;;;;;25.93;14.10;;;2.30;99.70;2.00;103115.00;;;;4916163;28;104540;-62
2023/02/08 09:36:05;;;;;;;19.73;10.73;;;2.30;99.90;2.20;103114.00;;;;4917057;28;84211;-62
2023/02/08 09:38:31;;;;;;;18.87;10.83;;;2.30;99.90;2.50;103111.00;;;;4914407;28;83607;-63
2023/02/08 09:41:34;;;;;;;15.63;9.90;;;2.60;99.90;2.60;103113.00;;;;4916736;28;112708;-63
2023/02/08 09:44:19;;;;;;;16.80;10.80;;;2.70;98.80;2.60;103138.00;;;;4915221;28;105117;-64
2023/02/08 09:46:56;;;;;;;16.80;9.37;;;3.80;98.10;2.50;103133.00;;;;4916811;28;84517;-64
2023/02/08 09:49:31;;;;;;;19.90;10.43;;;3.30;96.50;2.50;103119.00;;;;4934390;28;82767;-64
2023/02/08 09:52:11;;;;;;;15.67;9.13;;;2.70;96.70;2.60;103125.00;;;;4931836;28;83573;-65
2023/02/08 09:54:43;;;;;;;15.90;9.30;;;2.90;95.50;2.60;103118.00;;;;4918663;28;82100;-65
2023/02/08 09:57:23;;;;;;;19.37;10.53;;;2.90;94.00;2.70;103116.00;;;;4918209;28;82790;-64
2023/02/08 09:59:56;;;;;;;20.83;11.77;;;3.00;94.90;2.90;103113.00;;;;4930794;28;83637;-66
2023/02/08 10:02:28;;;;;;;14.37;9.23;;;3.00;95.20;3.00;103112.00;;;;4910924;28;104061;-66
2023/02/08 10:05:11;;;;;;;14.30;9.30;;;4.20;93.40;3.10;103114.00;;;;4918192;28;108600;-65
2023/02/08 10:07:40;;;;;;;17.70;8.63;;;3.30;92.40;3.00;103110.00;;;;4930882;28;106275;-66
2023/02/08 10:10:14;;;;;;;10.67;8.77;;;3.30;90.70;2.80;103110.00;;;;4917595;28;82839;-65
2023/02/08 10:13:12;;;;;;;11.27;7.90;;;3.10;88.50;2.80;103112.00;;;;4919034;28;86823;-65
2023/02/08 10:15:47;;;;;;;14.70;8.17;;;3.10;87.90;2.80;103120.00;;;;4918057;28;82678;-65
2023/02/08 10:18:39;;;;;;;15.53;7.93;;;3.10;87.40;2.70;103117.00;;;;4918606;28;102052;-65
2023/02/08 10:21:31;;;;;;;8.97;6.53;;;3.00;86.00;2.60;103107.00;;;;4929506;28;82035;-65
2023/02/08 10:24:25;;;;;;;13.47;9.77;;;2.90;85.70;2.60;103109.00;;;;4917325;28;82620;-65
2023/02/08 10:27:09;;;;;;;16.27;8.00;;;2.90;85.30;2.70;103103.00;;;;4920215;28;82752;-64
2023/02/08 10:29:50;;;;;;;18.23;7.97;;;3.00;85.00;2.80;103104.00;;;;4929171;28;99705;-65
2023/02/08 10:32:49;;;;;;;12.47;7.97;;;3.10;84.90;2.80;103097.00;;;;4937357;28;86498;-65
2023/02/08 10:35:27;;;;;;;16.77;9.20;;;3.00;84.00;3.10;103093.00;;;;4919387;28;82744;-65
2023/02/08 10:37:55;;;;;;;14.97;7.87;;;3.30;85.60;3.20;103103.00;;;;4930098;28;83849;-65
2023/02/08 10:40:36;;;;;;;13.27;7.53;;;3.30;83.40;3.20;103098.00;;;;4918918;28;83159;-66
2023/02/08 10:43:36;;;;;;;16.33;8.20;;;3.40;82.70;3.20;103106.00;;;;4915248;28;94785;-65
2023/02/08 10:46:39;;;;;;;14.83;7.97;;;3.40;81.60;3.40;103099.00;;;;4916330;28;82802;-65
2023/02/08 10:49:24;;;;;;;14.17;7.37;;;3.60;82.90;3.60;103091.00;;;;4933108;28;106991;-66